Terminal Aerodrome Forecast
Issued by NWS Binghamton, NY

Home | Current Version | Previous Version | Text Only | Print | Product List | Glossary On
Versions: 1 2 3 4 5 6 7 8 9 10 11 12 13 14 15 16 17 18 19 20 21 22
000
FTUS41 KBGM 301121
TAFAVP
TAF
KAVP 301121Z 3012/0112 09005KT P6SM -SHRA OVC040
     FM301600 19008G15KT 5SM -SHRA OVC045
      TEMPO 3020/3024 3SM -TSRA OVC040CB
     FM010400 18007KT 5SM BR OVC050
     FM010600 VRB03KT 3SM BR OVC015=

USA.gov is the U.S. government's official web portal to all federal, state and local government web resources and services.